sensor_id;sensor_type;location;lat;lon;timestamp;pressure;altitude;pressure_sealevel;temperature;humidity
62055;BME280;48653;51.742;-1.256;2023-01-28T00:03:49;102550.95;;;4.67;41.98
62055;BME280;48653;51.742;-1.256;2023-01-28T00:06:13;102557.12;;;5.59;42.32
62055;BME280;48653;51.742;-1.256;2023-01-28T00:08:37;102553.62;;;5.92;42.28
62055;BME280;48653;51.742;-1.256;2023-01-28T00:11:04;102554.21;;;5.93;42.56
62055;BME280;48653;51.742;-1.256;2023-01-28T00:13:29;102553.36;;;5.19;42.82
62055;BME280;48653;51.742;-1.256;2023-01-28T00:15:55;102551.91;;;5.48;42.88
62055;BME280;48653;51.742;-1.256;2023-01-28T00:18:19;102544.71;;;5.83;42.35
62055;BME280;48653;51.742;-1.256;2023-01-28T00:20:55;102545.18;;;5.35;43.05
62055;BME280;48653;51.742;-1.256;2023-01-28T00:23:10;102547.53;;;5.34;42.96
62055;BME280;48653;51.742;-1.256;2023-01-28T00:25:36;102551.66;;;5.54;42.79
62055;BME280;48653;51.742;-1.256;2023-01-28T00:28:01;102552.57;;;5.36;43.03
62055;BME280;48653;51.742;-1.256;2023-01-28T00:30:26;102552.26;;;5.40;42.83
62055;BME280;48653;51.742;-1.256;2023-01-28T00:32:53;102551.26;;;5.63;42.50
62055;BME280;48653;51.742;-1.256;2023-01-28T00:35:16;102560.73;;;5.63;42.78
62055;BME280;48653;51.742;-1.256;2023-01-28T00:37:44;102561.38;;;4.84;43.99
62055;BME280;48653;51.742;-1.256;2023-01-28T00:40:08;102553.38;;;5.03;43.21
62055;BME280;48653;51.742;-1.256;2023-01-28T00:42:32;102553.09;;;4.86;43.11
62055;BME280;48653;51.742;-1.256;2023-01-28T00:44:58;102554.06;;;5.31;42.14
62055;BME280;48653;51.742;-1.256;2023-01-28T00:47:23;102555.12;;;4.95;43.00
62055;BME280;48653;51.742;-1.256;2023-01-28T00:49:48;102556.16;;;4.82;42.90
62055;BME280;48653;51.742;-1.256;2023-01-28T00:52:14;102559.02;;;4.51;43.28
62055;BME280;48653;51.742;-1.256;2023-01-28T00:54:39;102558.40;;;4.81;43.32
62055;BME280;48653;51.742;-1.256;2023-01-28T00:57:04;102555.86;;;4.63;43.72
62055;BME280;48653;51.742;-1.256;2023-01-28T00:59:30;102555.65;;;5.01;43.08
62055;BME280;48653;51.742;-1.256;2023-01-28T01:01:55;102550.54;;;5.12;42.78
62055;BME280;48653;51.742;-1.256;2023-01-28T01:04:20;102552.75;;;4.83;42.67
62055;BME280;48653;51.742;-1.256;2023-01-28T01:06:46;102555.94;;;5.14;43.03
62055;BME280;48653;51.742;-1.256;2023-01-28T01:09:12;102556.93;;;4.33;43.02
62055;BME280;48653;51.742;-1.256;2023-01-28T01:11:37;102553.42;;;4.34;42.88
62055;BME280;48653;51.742;-1.256;2023-01-28T01:14:03;102551.11;;;4.86;42.36
62055;BME280;48653;51.742;-1.256;2023-01-28T01:16:30;102553.18;;;4.98;43.14
62055;BME280;48653;51.742;-1.256;2023-01-28T01:18:54;102550.68;;;4.92;42.66
62055;BME280;48653;51.742;-1.256;2023-01-28T01:21:20;102550.98;;;5.36;41.74
62055;BME280;48653;51.742;-1.256;2023-01-28T01:23:45;102548.01;;;5.38;42.08
62055;BME280;48653;51.742;-1.256;2023-01-28T01:26:09;102539.80;;;4.75;42.32
62055;BME280;48653;51.742;-1.256;2023-01-28T01:28:35;102535.26;;;5.69;41.38
62055;BME280;48653;51.742;-1.256;2023-01-28T01:31:03;102530.58;;;5.37;41.70
62055;BME280;48653;51.742;-1.256;2023-01-28T01:33:27;102525.79;;;5.83;41.63
62055;BME280;48653;51.742;-1.256;2023-01-28T01:35:52;102520.78;;;5.88;41.66
62055;BME280;48653;51.742;-1.256;2023-01-28T01:38:16;102519.07;;;5.88;41.47
62055;BME280;48653;51.742;-1.256;2023-01-28T01:40:42;102516.21;;;5.59;41.73
62055;BME280;48653;51.742;-1.256;2023-01-28T01:43:15;102513.54;;;5.51;41.41
62055;BME280;48653;51.742;-1.256;2023-01-28T01:45:34;102512.17;;;5.89;41.67
62055;BME280;48653;51.742;-1.256;2023-01-28T01:48:02;102519.32;;;6.04;40.92
62055;BME280;48653;51.742;-1.256;2023-01-28T01:50:28;102522.47;;;5.61;41.62
62055;BME280;48653;51.742;-1.256;2023-01-28T01:52:53;102527.54;;;5.53;41.72
62055;BME280;48653;51.742;-1.256;2023-01-28T01:55:18;102524.52;;;5.95;41.58
62055;BME280;48653;51.742;-1.256;2023-01-28T01:57:41;102521.12;;;5.86;41.77
62055;BME280;48653;51.742;-1.256;2023-01-28T02:00:08;102525.25;;;5.10;42.51
62055;BME280;48653;51.742;-1.256;2023-01-28T02:02:36;102530.73;;;5.21;42.20
62055;BME280;48653;51.742;-1.256;2023-01-28T02:04:56;102533.81;;;5.10;42.08
62055;BME280;48653;51.742;-1.256;2023-01-28T02:07:22;102533.57;;;5.79;41.46
62055;BME280;48653;51.742;-1.256;2023-01-28T02:09:47;102533.51;;;5.70;41.25
62055;BME280;48653;51.742;-1.256;2023-01-28T02:12:16;102536.56;;;5.65;41.19
62055;BME280;48653;51.742;-1.256;2023-01-28T02:14:42;102538.70;;;5.85;41.46
62055;BME280;48653;51.742;-1.256;2023-01-28T02:17:04;102534.44;;;5.63;41.18
62055;BME280;48653;51.742;-1.256;2023-01-28T02:19:35;102528.11;;;5.81;41.23
62055;BME280;48653;51.742;-1.256;2023-01-28T02:22:09;102529.53;;;5.92;40.91
62055;BME280;48653;51.742;-1.256;2023-01-28T02:26:56;102530.49;;;5.61;41.99
62055;BME280;48653;51.742;-1.256;2023-01-28T02:29:15;102524.56;;;5.14;42.62
62055;BME280;48653;51.742;-1.256;2023-01-28T02:31:41;102530.26;;;5.65;41.36
62055;BME280;48653;51.742;-1.256;2023-01-28T02:34:08;102531.00;;;5.35;41.75
62055;BME280;48653;51.742;-1.256;2023-01-28T02:36:32;102537.80;;;5.72;41.14
62055;BME280;48653;51.742;-1.256;2023-01-28T02:38:55;102545.81;;;5.76;41.59
62055;BME280;48653;51.742;-1.256;2023-01-28T02:41:23;102544.74;;;5.89;42.13
62055;BME280;48653;51.742;-1.256;2023-01-28T02:43:45;102548.03;;;5.52;42.30
62055;BME280;48653;51.742;-1.256;2023-01-28T02:46:16;102553.31;;;5.53;41.40
62055;BME280;48653;51.742;-1.256;2023-01-28T02:48:35;102547.35;;;5.75;40.85
62055;BME280;48653;51.742;-1.256;2023-01-28T02:51:04;102552.92;;;5.72;40.66
62055;BME280;48653;51.742;-1.256;2023-01-28T02:53:28;102556.07;;;4.97;41.24
62055;BME280;48653;51.742;-1.256;2023-01-28T02:55:54;102556.02;;;5.44;40.86
62055;BME280;48653;51.742;-1.256;2023-01-28T02:58:20;102554.51;;;6.02;40.51
62055;BME280;48653;51.742;-1.256;2023-01-28T03:00:48;102552.81;;;6.23;40.85
62055;BME280;48653;51.742;-1.256;2023-01-28T03:03:14;102552.24;;;5.36;41.04
62055;BME280;48653;51.742;-1.256;2023-01-28T03:05:35;102552.99;;;5.55;41.02
62055;BME280;48653;51.742;-1.256;2023-01-28T03:07:58;102555.75;;;5.49;40.71
62055;BME280;48653;51.742;-1.256;2023-01-28T03:10:25;102558.42;;;5.69;41.32
62055;BME280;48653;51.742;-1.256;2023-01-28T03:12:51;102562.76;;;5.00;41.49
62055;BME280;48653;51.742;-1.256;2023-01-28T03:15:16;102557.86;;;4.99;41.74
62055;BME280;48653;51.742;-1.256;2023-01-28T03:17:43;102554.27;;;5.43;41.40
62055;BME280;48653;51.742;-1.256;2023-01-28T03:20:06;102557.82;;;5.24;41.55
62055;BME280;48653;51.742;-1.256;2023-01-28T03:22:33;102561.41;;;5.45;41.21
62055;BME280;48653;51.742;-1.256;2023-01-28T03:24:57;102568.30;;;5.49;41.88
62055;BME280;48653;51.742;-1.256;2023-01-28T03:27:27;102569.67;;;5.69;40.95
62055;BME280;48653;51.742;-1.256;2023-01-28T03:29:47;102564.29;;;5.35;41.36
62055;BME280;48653;51.742;-1.256;2023-01-28T03:32:13;102565.47;;;5.61;42.13
62055;BME280;48653;51.742;-1.256;2023-01-28T03:34:38;102564.97;;;5.29;41.41
62055;BME280;48653;51.742;-1.256;2023-01-28T03:37:03;102562.78;;;5.58;41.09
62055;BME280;48653;51.742;-1.256;2023-01-28T03:39:29;102555.33;;;5.04;41.38
62055;BME280;48653;51.742;-1.256;2023-01-28T03:41:56;102553.50;;;5.37;41.56
62055;BME280;48653;51.742;-1.256;2023-01-28T03:44:19;102549.69;;;5.58;41.02
62055;BME280;48653;51.742;-1.256;2023-01-28T03:46:44;102541.46;;;5.35;41.40
62055;BME280;48653;51.742;-1.256;2023-01-28T03:49:10;102546.01;;;5.84;41.19
62055;BME280;48653;51.742;-1.256;2023-01-28T03:51:35;102545.18;;;5.48;41.17
62055;BME280;48653;51.742;-1.256;2023-01-28T03:54:01;102541.42;;;5.62;40.91
62055;BME280;48653;51.742;-1.256;2023-01-28T03:56:26;102546.63;;;5.67;40.79
62055;BME280;48653;51.742;-1.256;2023-01-28T03:58:51;102542.16;;;5.66;41.41
62055;BME280;48653;51.742;-1.256;2023-01-28T04:01:17;102532.78;;;5.83;40.82
62055;BME280;48653;51.742;-1.256;2023-01-28T04:03:43;102530.18;;;5.71;40.86
62055;BME280;48653;51.742;-1.256;2023-01-28T04:06:09;102527.76;;;5.69;41.54
62055;BME280;48653;51.742;-1.256;2023-01-28T04:08:34;102529.93;;;5.87;42.27
62055;BME280;48653;51.742;-1.256;2023-01-28T04:10:59;102537.34;;;5.83;41.45
62055;BME280;48653;51.742;-1.256;2023-01-28T04:13:25;102539.86;;;5.21;42.83
62055;BME280;48653;51.742;-1.256;2023-01-28T04:15:50;102538.83;;;5.29;42.20
62055;BME280;48653;51.742;-1.256;2023-01-28T04:18:15;102537.59;;;5.45;41.81
62055;BME280;48653;51.742;-1.256;2023-01-28T04:20:41;102548.01;;;5.50;42.09
62055;BME280;48653;51.742;-1.256;2023-01-28T04:23:06;102544.50;;;5.56;42.50
62055;BME280;48653;51.742;-1.256;2023-01-28T04:25:33;102528.66;;;5.88;41.25
62055;BME280;48653;51.742;-1.256;2023-01-28T04:27:58;102518.42;;;5.63;41.32
62055;BME280;48653;51.742;-1.256;2023-01-28T04:30:24;102523.91;;;5.55;42.50
62055;BME280;48653;51.742;-1.256;2023-01-28T04:32:49;102521.72;;;5.57;42.67
62055;BME280;48653;51.742;-1.256;2023-01-28T04:35:14;102512.94;;;5.74;42.09
62055;BME280;48653;51.742;-1.256;2023-01-28T04:37:40;102507.46;;;5.62;42.47
62055;BME280;48653;51.742;-1.256;2023-01-28T04:40:05;102497.76;;;5.63;42.55
62055;BME280;48653;51.742;-1.256;2023-01-28T04:42:30;102503.68;;;5.50;42.72
62055;BME280;48653;51.742;-1.256;2023-01-28T04:44:55;102512.40;;;4.99;42.55
62055;BME280;48653;51.742;-1.256;2023-01-28T04:47:21;102514.95;;;5.04;42.49
62055;BME280;48653;51.742;-1.256;2023-01-28T04:49:46;102520.15;;;5.21;42.92
62055;BME280;48653;51.742;-1.256;2023-01-28T04:52:11;102517.26;;;5.60;41.83
62055;BME280;48653;51.742;-1.256;2023-01-28T04:54:37;102521.29;;;5.38;42.60
62055;BME280;48653;51.742;-1.256;2023-01-28T04:57:03;102518.51;;;5.57;42.22
62055;BME280;48653;51.742;-1.256;2023-01-28T04:59:27;102522.01;;;5.32;42.49
62055;BME280;48653;51.742;-1.256;2023-01-28T05:01:53;102531.52;;;5.50;42.63
62055;BME280;48653;51.742;-1.256;2023-01-28T05:04:18;102533.67;;;5.55;42.72
62055;BME280;48653;51.742;-1.256;2023-01-28T05:06:43;102530.98;;;4.80;42.78
62055;BME280;48653;51.742;-1.256;2023-01-28T05:09:09;102541.22;;;5.40;42.56
62055;BME280;48653;51.742;-1.256;2023-01-28T05:11:34;102544.05;;;5.63;42.35
62055;BME280;48653;51.742;-1.256;2023-01-28T05:14:00;102543.48;;;5.61;42.33
62055;BME280;48653;51.742;-1.256;2023-01-28T05:16:25;102542.14;;;5.21;42.93
62055;BME280;48653;51.742;-1.256;2023-01-28T05:18:51;102541.42;;;5.20;43.28
62055;BME280;48653;51.742;-1.256;2023-01-28T05:21:17;102538.71;;;5.06;43.16
62055;BME280;48653;51.742;-1.256;2023-01-28T05:23:42;102539.77;;;5.27;42.62
62055;BME280;48653;51.742;-1.256;2023-01-28T05:26:08;102535.49;;;5.37;43.19
62055;BME280;48653;51.742;-1.256;2023-01-28T05:28:33;102531.41;;;5.49;41.99
62055;BME280;48653;51.742;-1.256;2023-01-28T05:31:02;102531.02;;;5.16;42.00
62055;BME280;48653;51.742;-1.256;2023-01-28T05:33:24;102529.78;;;5.33;42.39
62055;BME280;48653;51.742;-1.256;2023-01-28T05:35:50;102538.46;;;5.44;42.70
62055;BME280;48653;51.742;-1.256;2023-01-28T05:38:16;102541.87;;;5.49;42.51
62055;BME280;48653;51.742;-1.256;2023-01-28T05:40:41;102545.42;;;5.06;43.28
62055;BME280;48653;51.742;-1.256;2023-01-28T05:43:06;102542.46;;;5.41;42.58
62055;BME280;48653;51.742;-1.256;2023-01-28T05:45:31;102540.26;;;5.51;42.24
62055;BME280;48653;51.742;-1.256;2023-01-28T05:47:56;102541.18;;;5.52;42.82
62055;BME280;48653;51.742;-1.256;2023-01-28T05:50:22;102544.57;;;5.36;43.09
62055;BME280;48653;51.742;-1.256;2023-01-28T05:52:47;102548.68;;;5.29;43.10
62055;BME280;48653;51.742;-1.256;2023-01-28T05:55:12;102548.32;;;5.24;42.97
62055;BME280;48653;51.742;-1.256;2023-01-28T05:57:38;102543.51;;;5.12;43.17
62055;BME280;48653;51.742;-1.256;2023-01-28T06:00:05;102541.50;;;5.04;42.86
62055;BME280;48653;51.742;-1.256;2023-01-28T06:02:29;102548.13;;;5.36;42.30
62055;BME280;48653;51.742;-1.256;2023-01-28T06:04:55;102554.07;;;5.38;42.27
62055;BME280;48653;51.742;-1.256;2023-01-28T06:07:20;102554.67;;;5.02;42.81
62055;BME280;48653;51.742;-1.256;2023-01-28T06:09:46;102549.79;;;5.53;42.21
62055;BME280;48653;51.742;-1.256;2023-01-28T06:12:11;102547.51;;;5.36;42.03
62055;BME280;48653;51.742;-1.256;2023-01-28T06:14:37;102546.59;;;4.89;42.49
62055;BME280;48653;51.742;-1.256;2023-01-28T06:17:02;102549.00;;;5.31;43.06
62055;BME280;48653;51.742;-1.256;2023-01-28T06:19:28;102552.67;;;5.40;42.58
62055;BME280;48653;51.742;-1.256;2023-01-28T06:21:53;102552.43;;;5.55;42.39
62055;BME280;48653;51.742;-1.256;2023-01-28T06:24:19;102549.72;;;5.24;42.05
62055;BME280;48653;51.742;-1.256;2023-01-28T06:26:44;102546.50;;;5.35;42.24
62055;BME280;48653;51.742;-1.256;2023-01-28T06:29:10;102544.79;;;5.03;42.46
62055;BME280;48653;51.742;-1.256;2023-01-28T06:31:36;102545.54;;;5.11;42.36
62055;BME280;48653;51.742;-1.256;2023-01-28T06:34:01;102544.36;;;5.22;42.32
62055;BME280;48653;51.742;-1.256;2023-01-28T06:36:27;102550.62;;;4.97;42.74
62055;BME280;48653;51.742;-1.256;2023-01-28T06:38:52;102554.07;;;4.99;42.26
62055;BME280;48653;51.742;-1.256;2023-01-28T06:41:18;102556.11;;;5.23;42.09
62055;BME280;48653;51.742;-1.256;2023-01-28T06:43:43;102555.45;;;5.16;42.29
62055;BME280;48653;51.742;-1.256;2023-01-28T06:46:09;102565.79;;;5.04;43.17
62055;BME280;48653;51.742;-1.256;2023-01-28T06:48:35;102566.82;;;4.89;43.07
62055;BME280;48653;51.742;-1.256;2023-01-28T06:51:00;102566.73;;;5.14;42.96
62055;BME280;48653;51.742;-1.256;2023-01-28T06:53:26;102557.40;;;5.08;42.35
62055;BME280;48653;51.742;-1.256;2023-01-28T06:55:51;102556.87;;;5.19;42.31
62055;BME280;48653;51.742;-1.256;2023-01-28T06:58:17;102559.84;;;4.85;43.00
62055;BME280;48653;51.742;-1.256;2023-01-28T07:00:42;102558.70;;;5.26;42.19
62055;BME280;48653;51.742;-1.256;2023-01-28T07:03:08;102560.86;;;5.22;42.40
62055;BME280;48653;51.742;-1.256;2023-01-28T07:05:33;102564.26;;;4.89;42.84
62055;BME280;48653;51.742;-1.256;2023-01-28T07:07:58;102565.38;;;4.90;43.05
62055;BME280;48653;51.742;-1.256;2023-01-28T07:10:23;102556.74;;;5.16;42.35
62055;BME280;48653;51.742;-1.256;2023-01-28T07:12:48;102549.02;;;4.89;42.89
62055;BME280;48653;51.742;-1.256;2023-01-28T07:15:13;102550.26;;;5.27;42.32
62055;BME280;48653;51.742;-1.256;2023-01-28T07:17:39;102546.54;;;5.27;42.60
62055;BME280;48653;51.742;-1.256;2023-01-28T07:20:05;102542.10;;;5.40;42.24
62055;BME280;48653;51.742;-1.256;2023-01-28T07:22:29;102541.38;;;5.35;42.60
62055;BME280;48653;51.742;-1.256;2023-01-28T07:24:54;102543.61;;;5.56;42.89
62055;BME280;48653;51.742;-1.256;2023-01-28T07:27:20;102549.41;;;5.34;42.98
62055;BME280;48653;51.742;-1.256;2023-01-28T07:29:45;102550.64;;;5.39;43.29
62055;BME280;48653;51.742;-1.256;2023-01-28T07:32:11;102553.40;;;5.36;42.90
62055;BME280;48653;51.742;-1.256;2023-01-28T07:34:36;102549.20;;;5.33;43.04
62055;BME280;48653;51.742;-1.256;2023-01-28T07:37:02;102553.87;;;5.66;42.57
62055;BME280;48653;51.742;-1.256;2023-01-28T07:39:27;102559.26;;;5.41;42.91
62055;BME280;48653;51.742;-1.256;2023-01-28T07:41:52;102557.29;;;5.41;42.92
62055;BME280;48653;51.742;-1.256;2023-01-28T07:44:18;102545.12;;;5.33;42.42
62055;BME280;48653;51.742;-1.256;2023-01-28T07:46:43;102545.47;;;5.87;42.00
62055;BME280;48653;51.742;-1.256;2023-01-28T07:49:09;102553.50;;;5.61;42.54
62055;BME280;48653;51.742;-1.256;2023-01-28T07:51:34;102555.97;;;5.66;42.51
62055;BME280;48653;51.742;-1.256;2023-01-28T07:53:59;102553.33;;;5.68;42.94
62055;BME280;48653;51.742;-1.256;2023-01-28T07:56:25;102548.83;;;5.64;43.26
62055;BME280;48653;51.742;-1.256;2023-01-28T07:58:50;102552.75;;;5.57;43.36
62055;BME280;48653;51.742;-1.256;2023-01-28T08:01:16;102557.16;;;5.70;42.67
62055;BME280;48653;51.742;-1.256;2023-01-28T08:03:41;102561.46;;;5.72;42.58
62055;BME280;48653;51.742;-1.256;2023-01-28T08:06:06;102558.01;;;5.72;42.70
62055;BME280;48653;51.742;-1.256;2023-01-28T08:08:32;102556.63;;;5.59;42.86
62055;BME280;48653;51.742;-1.256;2023-01-28T08:10:57;102566.82;;;5.31;43.32
62055;BME280;48653;51.742;-1.256;2023-01-28T08:13:23;102570.35;;;5.36;43.58
62055;BME280;48653;51.742;-1.256;2023-01-28T08:15:49;102574.08;;;5.53;42.62
62055;BME280;48653;51.742;-1.256;2023-01-28T08:18:15;102579.13;;;5.61;42.42
62055;BME280;48653;51.742;-1.256;2023-01-28T08:20:40;102584.57;;;5.45;42.35
62055;BME280;48653;51.742;-1.256;2023-01-28T08:23:06;102586.14;;;5.68;42.24
62055;BME280;48653;51.742;-1.256;2023-01-28T08:25:30;102590.68;;;5.88;41.90
62055;BME280;48653;51.742;-1.256;2023-01-28T08:27:55;102592.45;;;6.06;41.62
62055;BME280;48653;51.742;-1.256;2023-01-28T08:30:21;102598.95;;;5.69;41.26
62055;BME280;48653;51.742;-1.256;2023-01-28T08:32:46;102603.35;;;6.34;40.86
62055;BME280;48653;51.742;-1.256;2023-01-28T08:35:12;102612.57;;;5.53;41.94
62055;BME280;48653;51.742;-1.256;2023-01-28T08:37:37;102608.16;;;5.28;42.49
62055;BME280;48653;51.742;-1.256;2023-01-28T08:40:03;102607.53;;;4.97;43.22
62055;BME280;48653;51.742;-1.256;2023-01-28T08:42:28;102613.60;;;5.27;42.51
62055;BME280;48653;51.742;-1.256;2023-01-28T08:44:54;102623.06;;;4.60;43.45
62055;BME280;48653;51.742;-1.256;2023-01-28T08:47:19;102624.65;;;5.25;42.97
62055;BME280;48653;51.742;-1.256;2023-01-28T08:49:45;102626.51;;;4.95;43.15
62055;BME280;48653;51.742;-1.256;2023-01-28T08:52:11;102631.17;;;4.66;43.46
62055;BME280;48653;51.742;-1.256;2023-01-28T08:54:36;102632.11;;;4.22;44.40
62055;BME280;48653;51.742;-1.256;2023-01-28T08:57:02;102634.85;;;4.59;43.79
62055;BME280;48653;51.742;-1.256;2023-01-28T08:59:26;102637.08;;;5.03;43.58
62055;BME280;48653;51.742;-1.256;2023-01-28T09:01:52;102634.94;;;5.21;43.56
62055;BME280;48653;51.742;-1.256;2023-01-28T09:04:18;102642.05;;;4.45;44.55
62055;BME280;48653;51.742;-1.256;2023-01-28T09:06:43;102643.29;;;5.13;44.02
62055;BME280;48653;51.742;-1.256;2023-01-28T09:09:08;102634.99;;;4.53;45.04
62055;BME280;48653;51.742;-1.256;2023-01-28T09:11:34;102622.78;;;4.34;45.26
62055;BME280;48653;51.742;-1.256;2023-01-28T09:14:00;102612.88;;;4.97;44.53
62055;BME280;48653;51.742;-1.256;2023-01-28T09:16:25;102604.12;;;4.80;45.04
62055;BME280;48653;51.742;-1.256;2023-01-28T09:18:50;102612.30;;;4.62;44.77
62055;BME280;48653;51.742;-1.256;2023-01-28T09:21:16;102613.19;;;4.67;44.52
62055;BME280;48653;51.742;-1.256;2023-01-28T09:23:41;102614.57;;;4.80;43.95
62055;BME280;48653;51.742;-1.256;2023-01-28T09:26:07;102611.61;;;5.40;43.85
62055;BME280;48653;51.742;-1.256;2023-01-28T09:28:32;102610.44;;;5.04;43.60
62055;BME280;48653;51.742;-1.256;2023-01-28T09:31:02;102602.23;;;4.62;44.09
62055;BME280;48653;51.742;-1.256;2023-01-28T09:33:23;102601.37;;;4.96;43.74
62055;BME280;48653;51.742;-1.256;2023-01-28T09:35:49;102598.61;;;5.22;43.37
62055;BME280;48653;51.742;-1.256;2023-01-28T09:38:13;102598.50;;;4.90;43.33
62055;BME280;48653;51.742;-1.256;2023-01-28T09:40:41;102603.24;;;5.66;43.03
62055;BME280;48653;51.742;-1.256;2023-01-28T09:43:19;102601.18;;;5.27;43.18
62055;BME280;48653;51.742;-1.256;2023-01-28T09:45:35;102595.19;;;5.43;42.59
62055;BME280;48653;51.742;-1.256;2023-01-28T09:47:57;102594.42;;;6.07;42.20
62055;BME280;48653;51.742;-1.256;2023-01-28T09:50:25;102589.07;;;5.62;42.10
62055;BME280;48653;51.742;-1.256;2023-01-28T09:52:46;102591.01;;;5.66;42.69
62055;BME280;48653;51.742;-1.256;2023-01-28T09:55:18;102584.45;;;5.70;42.86
62055;BME280;48653;51.742;-1.256;2023-01-28T09:57:41;102585.35;;;5.92;42.83
62055;BME280;48653;51.742;-1.256;2023-01-28T10:00:02;102582.17;;;5.67;42.91
62055;BME280;48653;51.742;-1.256;2023-01-28T10:02:38;102573.99;;;5.62;42.47
62055;BME280;48653;51.742;-1.256;2023-01-28T10:04:58;102569.36;;;5.84;42.74
62055;BME280;48653;51.742;-1.256;2023-01-28T10:07:28;102572.30;;;4.92;42.97
62055;BME280;48653;51.742;-1.256;2023-01-28T10:09:47;102574.91;;;5.63;43.04
62055;BME280;48653;51.742;-1.256;2023-01-28T10:12:21;102575.32;;;5.64;43.44
62055;BME280;48653;51.742;-1.256;2023-01-28T10:14:44;102575.26;;;4.72;43.49
62055;BME280;48653;51.742;-1.256;2023-01-28T10:17:04;102581.04;;;5.55;43.09
62055;BME280;48653;51.742;-1.256;2023-01-28T10:19:28;102577.55;;;5.55;42.78
62055;BME280;48653;51.742;-1.256;2023-01-28T10:21:54;102570.03;;;5.76;43.10
62055;BME280;48653;51.742;-1.256;2023-01-28T10:24:18;102562.78;;;5.59;43.53
62055;BME280;48653;51.742;-1.256;2023-01-28T10:26:42;102562.25;;;5.42;43.91
62055;BME280;48653;51.742;-1.256;2023-01-28T10:29:12;102566.22;;;4.66;44.35
62055;BME280;48653;51.742;-1.256;2023-01-28T10:31:37;102561.73;;;5.30;43.59
62055;BME280;48653;51.742;-1.256;2023-01-28T10:33:59;102559.94;;;5.96;42.16
62055;BME280;48653;51.742;-1.256;2023-01-28T10:36:25;102560.62;;;5.77;42.37
62055;BME280;48653;51.742;-1.256;2023-01-28T10:38:50;102552.84;;;5.96;42.25
62055;BME280;48653;51.742;-1.256;2023-01-28T10:41:19;102542.31;;;6.43;41.59
62055;BME280;48653;51.742;-1.256;2023-01-28T10:43:41;102540.40;;;6.28;41.14
62055;BME280;48653;51.742;-1.256;2023-01-28T10:46:10;102536.19;;;5.79;41.51
62055;BME280;48653;51.742;-1.256;2023-01-28T10:48:33;102533.80;;;5.91;42.08
62055;BME280;48653;51.742;-1.256;2023-01-28T10:50:59;102532.53;;;6.04;42.60
62055;BME280;48653;51.742;-1.256;2023-01-28T10:53:32;102542.04;;;6.02;41.99
62055;BME280;48653;51.742;-1.256;2023-01-28T10:55:50;102540.65;;;6.46;42.27
62055;BME280;48653;51.742;-1.256;2023-01-28T10:58:17;102541.83;;;6.25;42.31
62055;BME280;48653;51.742;-1.256;2023-01-28T11:00:38;102542.06;;;5.38;43.06
62055;BME280;48653;51.742;-1.256;2023-01-28T11:03:03;102538.90;;;6.35;42.33
62055;BME280;48653;51.742;-1.256;2023-01-28T11:05:30;102541.71;;;6.41;42.66
62055;BME280;48653;51.742;-1.256;2023-01-28T11:08:08;102545.21;;;5.47;43.33
62055;BME280;48653;51.742;-1.256;2023-01-28T11:10:30;102544.90;;;5.40;43.39
62055;BME280;48653;51.742;-1.256;2023-01-28T11:12:53;102546.42;;;5.24;43.59
62055;BME280;48653;51.742;-1.256;2023-01-28T11:15:17;102542.70;;;5.96;42.58
62055;BME280;48653;51.742;-1.256;2023-01-28T11:17:37;102546.46;;;6.32;42.06
62055;BME280;48653;51.742;-1.256;2023-01-28T11:20:08;102545.03;;;6.15;42.71
62055;BME280;48653;51.742;-1.256;2023-01-28T11:22:32;102548.11;;;6.29;41.86
62055;BME280;48653;51.742;-1.256;2023-01-28T11:24:52;102551.15;;;6.02;43.20
62055;BME280;48653;51.742;-1.256;2023-01-28T11:27:19;102559.95;;;6.26;42.07
62055;BME280;48653;51.742;-1.256;2023-01-28T11:29:43;102560.79;;;5.81;43.08
62055;BME280;48653;51.742;-1.256;2023-01-28T11:32:16;102558.84;;;6.01;42.46
62055;BME280;48653;51.742;-1.256;2023-01-28T11:34:34;102551.49;;;5.87;42.82
62055;BME280;48653;51.742;-1.256;2023-01-28T11:37:03;102547.50;;;6.09;42.68
62055;BME280;48653;51.742;-1.256;2023-01-28T11:39:26;102545.10;;;6.76;41.80
62055;BME280;48653;51.742;-1.256;2023-01-28T11:41:50;102545.91;;;7.00;41.59
62055;BME280;48653;51.742;-1.256;2023-01-28T11:44:18;102547.22;;;6.68;41.32
62055;BME280;48653;51.742;-1.256;2023-01-28T11:46:57;102551.70;;;6.95;41.30
62055;BME280;48653;51.742;-1.256;2023-01-28T11:49:13;102553.93;;;6.99;41.58
62055;BME280;48653;51.742;-1.256;2023-01-28T11:51:36;102551.86;;;6.81;41.52
62055;BME280;48653;51.742;-1.256;2023-01-28T11:54:08;102550.43;;;6.94;42.11
62055;BME280;48653;51.742;-1.256;2023-01-28T11:56:32;102547.30;;;6.93;41.58
62055;BME280;48653;51.742;-1.256;2023-01-28T11:58:55;102545.99;;;7.01;41.88
62055;BME280;48653;51.742;-1.256;2023-01-28T12:01:20;102543.96;;;7.03;42.15
62055;BME280;48653;51.742;-1.256;2023-01-28T12:03:49;102547.50;;;6.86;42.58
62055;BME280;48653;51.742;-1.256;2023-01-28T12:06:14;102544.61;;;7.14;42.80
62055;BME280;48653;51.742;-1.256;2023-01-28T12:08:36;102551.09;;;6.90;42.93
62055;BME280;48653;51.742;-1.256;2023-01-28T12:11:12;102552.03;;;6.91;42.79
62055;BME280;48653;51.742;-1.256;2023-01-28T12:13:32;102548.85;;;6.80;42.55
62055;BME280;48653;51.742;-1.256;2023-01-28T12:18:21;102536.75;;;7.47;41.82
62055;BME280;48653;51.742;-1.256;2023-01-28T12:20:42;102539.70;;;6.59;42.50
62055;BME280;48653;51.742;-1.256;2023-01-28T12:23:16;102542.88;;;7.05;42.04
62055;BME280;48653;51.742;-1.256;2023-01-28T12:25:38;102544.86;;;6.81;42.64
62055;BME280;48653;51.742;-1.256;2023-01-28T12:28:02;102543.28;;;6.20;43.45
62055;BME280;48653;51.742;-1.256;2023-01-28T12:30:28;102543.66;;;7.26;41.58
62055;BME280;48653;51.742;-1.256;2023-01-28T12:32:57;102538.85;;;6.75;42.71
62055;BME280;48653;51.742;-1.256;2023-01-28T12:35:18;102539.26;;;6.21;42.91
62055;BME280;48653;51.742;-1.256;2023-01-28T12:37:46;102536.07;;;6.43;42.42
62055;BME280;48653;51.742;-1.256;2023-01-28T12:40:14;102527.30;;;6.21;43.31
62055;BME280;48653;51.742;-1.256;2023-01-28T12:42:33;102525.98;;;6.13;43.60
62055;BME280;48653;51.742;-1.256;2023-01-28T12:44:56;102519.42;;;6.31;43.45
62055;BME280;48653;51.742;-1.256;2023-01-28T12:47:21;102517.55;;;5.94;43.89